sensor_id;sensor_type;location;lat;lon;timestamp;temperature;humidity
26224;DHT22;14820;48.682;8.890;2023-05-10T00:00:54;13.10;99.90
26224;DHT22;14820;48.682;8.890;2023-05-10T00:03:19;13.20;99.90
26224;DHT22;14820;48.682;8.890;2023-05-10T00:05:45;13.20;99.90
26224;DHT22;14820;48.682;8.890;2023-05-10T00:08:11;13.10;99.90
26224;DHT22;14820;48.682;8.890;2023-05-10T00:10:36;13.10;99.90
26224;DHT22;14820;48.682;8.890;2023-05-10T00:13:03;13.10;99.90
26224;DHT22;14820;48.682;8.890;2023-05-10T00:15:28;13.10;99.90
26224;DHT22;14820;48.682;8.890;2023-05-10T00:17:56;13.10;99.90
26224;DHT22;14820;48.682;8.890;2023-05-10T00:20:22;13.00;99.90
26224;DHT22;14820;48.682;8.890;2023-05-10T00:22:47;13.00;99.90
26224;DHT22;14820;48.682;8.890;2023-05-10T00:25:13;13.00;99.90
26224;DHT22;14820;48.682;8.890;2023-05-10T00:27:39;13.00;99.90
26224;DHT22;14820;48.682;8.890;2023-05-10T00:30:05;12.90;99.90
26224;DHT22;14820;48.682;8.890;2023-05-10T00:32:31;12.90;99.90
26224;DHT22;14820;48.682;8.890;2023-05-10T00:34:57;12.90;99.90
26224;DHT22;14820;48.682;8.890;2023-05-10T00:37:23;12.80;99.90
26224;DHT22;14820;48.682;8.890;2023-05-10T00:39:48;12.80;99.90
26224;DHT22;14820;48.682;8.890;2023-05-10T00:42:14;12.80;99.90
26224;DHT22;14820;48.682;8.890;2023-05-10T00:44:40;12.70;99.90
26224;DHT22;14820;48.682;8.890;2023-05-10T00:47:05;12.70;99.90
26224;DHT22;14820;48.682;8.890;2023-05-10T00:49:31;12.70;99.90
26224;DHT22;14820;48.682;8.890;2023-05-10T00:51:57;12.70;99.90
26224;DHT22;14820;48.682;8.890;2023-05-10T00:54:22;12.60;99.90
26224;DHT22;14820;48.682;8.890;2023-05-10T00:56:48;12.70;99.90
26224;DHT22;14820;48.682;8.890;2023-05-10T00:59:18;12.70;99.90
26224;DHT22;14820;48.682;8.890;2023-05-10T01:01:44;12.70;99.90
26224;DHT22;14820;48.682;8.890;2023-05-10T01:04:12;12.70;99.90
26224;DHT22;14820;48.682;8.890;2023-05-10T01:06:39;12.70;99.90
26224;DHT22;14820;48.682;8.890;2023-05-10T01:09:05;12.70;99.90
26224;DHT22;14820;48.682;8.890;2023-05-10T01:11:33;12.70;99.90
26224;DHT22;14820;48.682;8.890;2023-05-10T01:13:59;12.70;99.90
26224;DHT22;14820;48.682;8.890;2023-05-10T01:16:26;12.70;99.90
26224;DHT22;14820;48.682;8.890;2023-05-10T01:18:52;12.60;99.90
26224;DHT22;14820;48.682;8.890;2023-05-10T01:21:23;12.60;99.90
26224;DHT22;14820;48.682;8.890;2023-05-10T01:26:46;12.60;99.90
26224;DHT22;14820;48.682;8.890;2023-05-10T01:37:56;12.60;99.90
26224;DHT22;14820;48.682;8.890;2023-05-10T01:40:37;12.60;99.90
26224;DHT22;14820;48.682;8.890;2023-05-10T01:43:14;12.60;99.90
26224;DHT22;14820;48.682;8.890;2023-05-10T01:45:55;12.60;99.90
26224;DHT22;14820;48.682;8.890;2023-05-10T01:48:23;12.60;99.90
26224;DHT22;14820;48.682;8.890;2023-05-10T01:50:52;12.60;99.90
26224;DHT22;14820;48.682;8.890;2023-05-10T01:53:20;12.50;99.90
26224;DHT22;14820;48.682;8.890;2023-05-10T01:55:48;12.50;99.90
26224;DHT22;14820;48.682;8.890;2023-05-10T01:58:21;12.50;99.90
26224;DHT22;14820;48.682;8.890;2023-05-10T02:00:49;12.40;99.90
26224;DHT22;14820;48.682;8.890;2023-05-10T02:03:16;12.40;99.90
26224;DHT22;14820;48.682;8.890;2023-05-10T02:05:43;12.40;99.90
26224;DHT22;14820;48.682;8.890;2023-05-10T02:08:11;12.40;99.90
26224;DHT22;14820;48.682;8.890;2023-05-10T02:10:39;12.40;99.90
26224;DHT22;14820;48.682;8.890;2023-05-10T02:13:05;12.40;99.90
26224;DHT22;14820;48.682;8.890;2023-05-10T02:15:33;12.30;99.90
26224;DHT22;14820;48.682;8.890;2023-05-10T02:18:00;12.30;99.90
26224;DHT22;14820;48.682;8.890;2023-05-10T02:20:27;12.30;99.90
26224;DHT22;14820;48.682;8.890;2023-05-10T02:22:54;12.20;99.90
26224;DHT22;14820;48.682;8.890;2023-05-10T02:25:22;12.30;99.90
26224;DHT22;14820;48.682;8.890;2023-05-10T02:27:48;12.20;99.90
26224;DHT22;14820;48.682;8.890;2023-05-10T02:30:16;12.20;99.90
26224;DHT22;14820;48.682;8.890;2023-05-10T02:32:43;12.20;99.90
26224;DHT22;14820;48.682;8.890;2023-05-10T02:35:09;12.10;99.90
26224;DHT22;14820;48.682;8.890;2023-05-10T02:37:36;12.10;99.90
26224;DHT22;14820;48.682;8.890;2023-05-10T02:40:04;12.00;99.90
26224;DHT22;14820;48.682;8.890;2023-05-10T02:42:33;12.00;99.90
26224;DHT22;14820;48.682;8.890;2023-05-10T02:45:02;12.00;99.90
26224;DHT22;14820;48.682;8.890;2023-05-10T02:47:29;12.00;99.90
26224;DHT22;14820;48.682;8.890;2023-05-10T02:49:55;12.10;99.90
26224;DHT22;14820;48.682;8.890;2023-05-10T02:52:27;12.10;99.90
26224;DHT22;14820;48.682;8.890;2023-05-10T02:54:55;12.10;99.90
26224;DHT22;14820;48.682;8.890;2023-05-10T02:57:27;12.10;99.90
26224;DHT22;14820;48.682;8.890;2023-05-10T02:59:54;12.10;99.90
26224;DHT22;14820;48.682;8.890;2023-05-10T03:02:20;12.10;99.90
26224;DHT22;14820;48.682;8.890;2023-05-10T03:04:46;12.10;99.90
26224;DHT22;14820;48.682;8.890;2023-05-10T03:07:13;12.10;99.90
26224;DHT22;14820;48.682;8.890;2023-05-10T03:09:39;12.10;99.90
26224;DHT22;14820;48.682;8.890;2023-05-10T03:15:37;12.10;99.90
26224;DHT22;14820;48.682;8.890;2023-05-10T03:18:15;12.10;99.90
26224;DHT22;14820;48.682;8.890;2023-05-10T03:20:47;12.10;99.90
26224;DHT22;14820;48.682;8.890;2023-05-10T03:23:22;12.10;99.90
26224;DHT22;14820;48.682;8.890;2023-05-10T03:25:51;12.10;99.90
26224;DHT22;14820;48.682;8.890;2023-05-10T03:28:18;12.10;99.90
26224;DHT22;14820;48.682;8.890;2023-05-10T03:30:46;12.10;99.90
26224;DHT22;14820;48.682;8.890;2023-05-10T03:33:12;12.00;99.90
26224;DHT22;14820;48.682;8.890;2023-05-10T03:35:38;12.00;99.90
26224;DHT22;14820;48.682;8.890;2023-05-10T03:38:04;12.00;99.90
26224;DHT22;14820;48.682;8.890;2023-05-10T03:40:30;12.00;99.90
26224;DHT22;14820;48.682;8.890;2023-05-10T03:43:00;12.00;99.90
26224;DHT22;14820;48.682;8.890;2023-05-10T03:45:26;12.00;99.90
26224;DHT22;14820;48.682;8.890;2023-05-10T03:47:51;12.00;99.90
26224;DHT22;14820;48.682;8.890;2023-05-10T03:50:17;12.00;99.90
26224;DHT22;14820;48.682;8.890;2023-05-10T03:52:43;12.00;99.90
26224;DHT22;14820;48.682;8.890;2023-05-10T03:55:10;12.00;99.90
26224;DHT22;14820;48.682;8.890;2023-05-10T03:57:35;12.00;99.90
26224;DHT22;14820;48.682;8.890;2023-05-10T04:00:02;12.00;99.90
26224;DHT22;14820;48.682;8.890;2023-05-10T04:02:28;12.00;99.90
26224;DHT22;14820;48.682;8.890;2023-05-10T04:04:55;11.90;99.90
26224;DHT22;14820;48.682;8.890;2023-05-10T04:07:20;11.90;99.90
26224;DHT22;14820;48.682;8.890;2023-05-10T04:09:46;11.90;99.90
26224;DHT22;14820;48.682;8.890;2023-05-10T04:12:12;11.90;99.90
26224;DHT22;14820;48.682;8.890;2023-05-10T04:14:38;12.00;99.90
26224;DHT22;14820;48.682;8.890;2023-05-10T04:17:03;12.00;99.90
26224;DHT22;14820;48.682;8.890;2023-05-10T04:19:32;12.00;99.90
26224;DHT22;14820;48.682;8.890;2023-05-10T04:21:58;11.90;99.90
26224;DHT22;14820;48.682;8.890;2023-05-10T04:24:24;12.00;99.90
26224;DHT22;14820;48.682;8.890;2023-05-10T04:26:50;12.00;99.90
26224;DHT22;14820;48.682;8.890;2023-05-10T04:29:16;12.00;99.90
26224;DHT22;14820;48.682;8.890;2023-05-10T04:31:41;11.90;99.90
26224;DHT22;14820;48.682;8.890;2023-05-10T04:34:07;11.90;99.90
26224;DHT22;14820;48.682;8.890;2023-05-10T04:36:33;11.90;99.90
26224;DHT22;14820;48.682;8.890;2023-05-10T04:39:01;11.90;99.90
26224;DHT22;14820;48.682;8.890;2023-05-10T04:41:28;11.90;99.90
26224;DHT22;14820;48.682;8.890;2023-05-10T04:43:54;11.80;99.90
26224;DHT22;14820;48.682;8.890;2023-05-10T04:46:19;11.90;99.90
26224;DHT22;14820;48.682;8.890;2023-05-10T04:48:45;11.90;99.90
26224;DHT22;14820;48.682;8.890;2023-05-10T04:51:11;11.90;99.90
26224;DHT22;14820;48.682;8.890;2023-05-10T04:53:37;11.90;99.90
26224;DHT22;14820;48.682;8.890;2023-05-10T04:56:02;11.90;99.90
26224;DHT22;14820;48.682;8.890;2023-05-10T04:58:28;11.80;99.90
26224;DHT22;14820;48.682;8.890;2023-05-10T05:00:54;11.90;99.90
26224;DHT22;14820;48.682;8.890;2023-05-10T05:03:19;11.90;99.90
26224;DHT22;14820;48.682;8.890;2023-05-10T05:05:45;11.90;99.90
26224;DHT22;14820;48.682;8.890;2023-05-10T05:08:10;11.90;99.90
26224;DHT22;14820;48.682;8.890;2023-05-10T05:10:36;11.90;99.90
26224;DHT22;14820;48.682;8.890;2023-05-10T05:13:02;11.90;99.90
26224;DHT22;14820;48.682;8.890;2023-05-10T05:15:27;11.90;99.90
26224;DHT22;14820;48.682;8.890;2023-05-10T05:17:53;12.00;99.90
26224;DHT22;14820;48.682;8.890;2023-05-10T05:20:19;12.00;99.90
26224;DHT22;14820;48.682;8.890;2023-05-10T05:22:44;12.00;99.90
26224;DHT22;14820;48.682;8.890;2023-05-10T05:25:10;12.00;99.90
26224;DHT22;14820;48.682;8.890;2023-05-10T05:27:37;12.00;99.90
26224;DHT22;14820;48.682;8.890;2023-05-10T05:30:03;11.90;99.90
26224;DHT22;14820;48.682;8.890;2023-05-10T05:32:29;11.90;99.90
26224;DHT22;14820;48.682;8.890;2023-05-10T05:34:55;12.00;99.90
26224;DHT22;14820;48.682;8.890;2023-05-10T05:37:21;12.00;99.90
26224;DHT22;14820;48.682;8.890;2023-05-10T05:39:48;12.00;99.90
26224;DHT22;14820;48.682;8.890;2023-05-10T05:42:14;12.00;99.90
26224;DHT22;14820;48.682;8.890;2023-05-10T05:44:41;12.00;99.90
26224;DHT22;14820;48.682;8.890;2023-05-10T05:47:07;12.00;99.90
26224;DHT22;14820;48.682;8.890;2023-05-10T05:49:33;12.10;99.90
26224;DHT22;14820;48.682;8.890;2023-05-10T05:52:00;12.00;99.90
26224;DHT22;14820;48.682;8.890;2023-05-10T05:54:29;12.10;99.90
26224;DHT22;14820;48.682;8.890;2023-05-10T05:56:56;12.10;99.90
26224;DHT22;14820;48.682;8.890;2023-05-10T05:59:22;12.10;99.90
26224;DHT22;14820;48.682;8.890;2023-05-10T06:01:48;12.10;99.90
26224;DHT22;14820;48.682;8.890;2023-05-10T06:04:13;12.10;99.90
26224;DHT22;14820;48.682;8.890;2023-05-10T06:06:39;12.20;99.90
26224;DHT22;14820;48.682;8.890;2023-05-10T06:09:05;12.20;99.90
26224;DHT22;14820;48.682;8.890;2023-05-10T06:11:30;12.20;99.90
26224;DHT22;14820;48.682;8.890;2023-05-10T06:13:58;12.20;99.90
26224;DHT22;14820;48.682;8.890;2023-05-10T06:16:23;12.30;99.90
26224;DHT22;14820;48.682;8.890;2023-05-10T06:18:49;12.30;99.90
26224;DHT22;14820;48.682;8.890;2023-05-10T06:21:15;12.30;99.90
26224;DHT22;14820;48.682;8.890;2023-05-10T06:23:41;12.30;99.90
26224;DHT22;14820;48.682;8.890;2023-05-10T06:26:07;12.30;99.90
26224;DHT22;14820;48.682;8.890;2023-05-10T06:28:33;12.40;99.90
26224;DHT22;14820;48.682;8.890;2023-05-10T06:30:59;12.40;99.90
26224;DHT22;14820;48.682;8.890;2023-05-10T06:33:25;12.40;99.90
26224;DHT22;14820;48.682;8.890;2023-05-10T06:35:51;12.50;99.90
26224;DHT22;14820;48.682;8.890;2023-05-10T06:38:17;12.50;99.90
26224;DHT22;14820;48.682;8.890;2023-05-10T06:40:43;12.50;99.90
26224;DHT22;14820;48.682;8.890;2023-05-10T06:43:09;12.50;99.90
26224;DHT22;14820;48.682;8.890;2023-05-10T06:45:35;12.50;99.90
26224;DHT22;14820;48.682;8.890;2023-05-10T06:48:00;12.50;99.90
26224;DHT22;14820;48.682;8.890;2023-05-10T06:50:26;12.60;99.90
26224;DHT22;14820;48.682;8.890;2023-05-10T06:52:52;12.60;99.90
26224;DHT22;14820;48.682;8.890;2023-05-10T06:55:18;12.70;99.90
26224;DHT22;14820;48.682;8.890;2023-05-10T06:57:43;12.70;99.90
26224;DHT22;14820;48.682;8.890;2023-05-10T07:00:09;12.70;99.90
26224;DHT22;14820;48.682;8.890;2023-05-10T07:02:35;12.70;99.90
26224;DHT22;14820;48.682;8.890;2023-05-10T07:05:01;12.80;99.90
26224;DHT22;14820;48.682;8.890;2023-05-10T07:07:27;12.80;99.90
26224;DHT22;14820;48.682;8.890;2023-05-10T07:09:53;12.80;99.90
26224;DHT22;14820;48.682;8.890;2023-05-10T07:12:19;12.80;99.90
26224;DHT22;14820;48.682;8.890;2023-05-10T07:14:45;12.80;99.90
26224;DHT22;14820;48.682;8.890;2023-05-10T07:17:11;12.80;99.90
26224;DHT22;14820;48.682;8.890;2023-05-10T07:19:36;12.80;99.90
26224;DHT22;14820;48.682;8.890;2023-05-10T07:22:02;12.80;99.90
26224;DHT22;14820;48.682;8.890;2023-05-10T07:24:28;12.80;99.90
26224;DHT22;14820;48.682;8.890;2023-05-10T07:26:53;12.80;99.90
26224;DHT22;14820;48.682;8.890;2023-05-10T07:29:19;12.90;99.90
26224;DHT22;14820;48.682;8.890;2023-05-10T07:31:45;13.00;99.90
26224;DHT22;14820;48.682;8.890;2023-05-10T07:34:10;13.00;99.90
26224;DHT22;14820;48.682;8.890;2023-05-10T07:36:36;13.00;99.90
26224;DHT22;14820;48.682;8.890;2023-05-10T07:39:02;12.90;99.90
26224;DHT22;14820;48.682;8.890;2023-05-10T07:41:28;12.90;99.90
26224;DHT22;14820;48.682;8.890;2023-05-10T07:43:53;12.90;99.90
26224;DHT22;14820;48.682;8.890;2023-05-10T07:46:19;12.90;99.90
26224;DHT22;14820;48.682;8.890;2023-05-10T07:48:45;13.00;99.90
26224;DHT22;14820;48.682;8.890;2023-05-10T07:51:11;13.00;99.90
26224;DHT22;14820;48.682;8.890;2023-05-10T07:53:37;13.00;99.90
26224;DHT22;14820;48.682;8.890;2023-05-10T07:58:47;12.90;99.90
26224;DHT22;14820;48.682;8.890;2023-05-10T08:01:12;12.90;99.90
26224;DHT22;14820;48.682;8.890;2023-05-10T08:03:38;12.90;99.90
26224;DHT22;14820;48.682;8.890;2023-05-10T08:06:04;12.90;99.90
26224;DHT22;14820;48.682;8.890;2023-05-10T08:08:29;12.90;99.90
26224;DHT22;14820;48.682;8.890;2023-05-10T08:10:55;13.00;99.90
26224;DHT22;14820;48.682;8.890;2023-05-10T08:13:21;13.00;99.90
26224;DHT22;14820;48.682;8.890;2023-05-10T08:15:47;13.00;99.90
26224;DHT22;14820;48.682;8.890;2023-05-10T08:18:12;13.00;99.90
26224;DHT22;14820;48.682;8.890;2023-05-10T08:20:38;13.00;99.90
26224;DHT22;14820;48.682;8.890;2023-05-10T08:23:04;13.00;99.90
26224;DHT22;14820;48.682;8.890;2023-05-10T08:25:29;13.00;99.90
26224;DHT22;14820;48.682;8.890;2023-05-10T08:27:55;13.10;99.90
26224;DHT22;14820;48.682;8.890;2023-05-10T08:30:21;13.10;99.90
26224;DHT22;14820;48.682;8.890;2023-05-10T08:32:46;13.20;99.90
26224;DHT22;14820;48.682;8.890;2023-05-10T08:35:12;13.20;99.90
26224;DHT22;14820;48.682;8.890;2023-05-10T08:37:37;13.20;99.90
26224;DHT22;14820;48.682;8.890;2023-05-10T08:40:03;13.20;99.90
26224;DHT22;14820;48.682;8.890;2023-05-10T08:42:30;13.20;99.90
26224;DHT22;14820;48.682;8.890;2023-05-10T08:45:00;13.20;99.90
26224;DHT22;14820;48.682;8.890;2023-05-10T08:47:27;13.30;99.90
26224;DHT22;14820;48.682;8.890;2023-05-10T08:49:54;13.30;99.90
26224;DHT22;14820;48.682;8.890;2023-05-10T08:52:21;13.40;99.90
26224;DHT22;14820;48.682;8.890;2023-05-10T08:54:48;13.40;99.90
26224;DHT22;14820;48.682;8.890;2023-05-10T08:57:14;13.40;99.90
26224;DHT22;14820;48.682;8.890;2023-05-10T08:59:40;13.40;99.90
26224;DHT22;14820;48.682;8.890;2023-05-10T09:02:06;13.40;99.90
26224;DHT22;14820;48.682;8.890;2023-05-10T09:04:32;13.50;99.90
26224;DHT22;14820;48.682;8.890;2023-05-10T09:06:58;13.50;99.90
26224;DHT22;14820;48.682;8.890;2023-05-10T09:09:25;13.60;99.90
26224;DHT22;14820;48.682;8.890;2023-05-10T09:11:51;13.70;99.90
26224;DHT22;14820;48.682;8.890;2023-05-10T09:14:18;13.70;99.90
26224;DHT22;14820;48.682;8.890;2023-05-10T09:16:45;13.80;99.90
26224;DHT22;14820;48.682;8.890;2023-05-10T09:19:11;13.80;99.90
26224;DHT22;14820;48.682;8.890;2023-05-10T09:21:37;13.80;99.90
26224;DHT22;14820;48.682;8.890;2023-05-10T09:24:07;13.80;99.90
26224;DHT22;14820;48.682;8.890;2023-05-10T09:26:33;13.80;99.90
26224;DHT22;14820;48.682;8.890;2023-05-10T09:29:00;13.80;99.90
26224;DHT22;14820;48.682;8.890;2023-05-10T09:31:47;13.70;99.90
26224;DHT22;14820;48.682;8.890;2023-05-10T09:34:19;13.80;99.90
26224;DHT22;14820;48.682;8.890;2023-05-10T09:36:55;13.80;99.90
26224;DHT22;14820;48.682;8.890;2023-05-10T09:39:33;13.90;99.90
26224;DHT22;14820;48.682;8.890;2023-05-10T09:42:01;13.90;99.90
26224;DHT22;14820;48.682;8.890;2023-05-10T09:44:29;14.00;99.90
26224;DHT22;14820;48.682;8.890;2023-05-10T09:46:55;14.10;99.90
26224;DHT22;14820;48.682;8.890;2023-05-10T09:49:21;14.10;99.90
26224;DHT22;14820;48.682;8.890;2023-05-10T09:51:47;14.10;99.90
26224;DHT22;14820;48.682;8.890;2023-05-10T09:54:14;14.00;99.90
26224;DHT22;14820;48.682;8.890;2023-05-10T09:56:40;14.00;99.90
26224;DHT22;14820;48.682;8.890;2023-05-10T09:59:09;14.00;99.90
26224;DHT22;14820;48.682;8.890;2023-05-10T10:01:35;14.00;99.90
26224;DHT22;14820;48.682;8.890;2023-05-10T10:04:05;14.10;99.90
26224;DHT22;14820;48.682;8.890;2023-05-10T10:06:40;14.10;99.90
26224;DHT22;14820;48.682;8.890;2023-05-10T10:09:07;14.10;99.90
26224;DHT22;14820;48.682;8.890;2023-05-10T10:11:35;14.20;99.90
26224;DHT22;14820;48.682;8.890;2023-05-10T10:14:01;14.30;99.90
26224;DHT22;14820;48.682;8.890;2023-05-10T10:16:29;14.40;99.90
26224;DHT22;14820;48.682;8.890;2023-05-10T10:18:55;14.50;99.90
26224;DHT22;14820;48.682;8.890;2023-05-10T10:21:22;14.50;99.90
26224;DHT22;14820;48.682;8.890;2023-05-10T10:23:48;14.60;99.90
26224;DHT22;14820;48.682;8.890;2023-05-10T10:26:14;14.60;99.90
26224;DHT22;14820;48.682;8.890;2023-05-10T10:31:54;14.40;99.90
26224;DHT22;14820;48.682;8.890;2023-05-10T10:34:29;14.00;99.90
26224;DHT22;14820;48.682;8.890;2023-05-10T10:36:56;13.70;99.90
26224;DHT22;14820;48.682;8.890;2023-05-10T10:39:23;13.50;99.90
26224;DHT22;14820;48.682;8.890;2023-05-10T10:41:56;13.20;99.90
26224;DHT22;14820;48.682;8.890;2023-05-10T10:52:28;12.60;99.90
26224;DHT22;14820;48.682;8.890;2023-05-10T10:57:54;12.60;99.90
26224;DHT22;14820;48.682;8.890;2023-05-10T11:02:53;12.50;99.90
26224;DHT22;14820;48.682;8.890;2023-05-10T11:07:59;12.70;99.90
26224;DHT22;14820;48.682;8.890;2023-05-10T11:10:25;12.70;99.90
26224;DHT22;14820;48.682;8.890;2023-05-10T11:13:01;12.70;99.90
26224;DHT22;14820;48.682;8.890;2023-05-10T11:15:32;12.80;99.90
26224;DHT22;14820;48.682;8.890;2023-05-10T11:17:58;12.90;99.90
26224;DHT22;14820;48.682;8.890;2023-05-10T11:20:28;13.00;99.90
26224;DHT22;14820;48.682;8.890;2023-05-10T11:23:10;13.00;99.90
26224;DHT22;14820;48.682;8.890;2023-05-10T11:25:44;13.10;99.90
26224;DHT22;14820;48.682;8.890;2023-05-10T11:28:13;13.30;99.90
26224;DHT22;14820;48.682;8.890;2023-05-10T11:30:39;13.30;99.90
26224;DHT22;14820;48.682;8.890;2023-05-10T11:33:06;13.30;99.90
26224;DHT22;14820;48.682;8.890;2023-05-10T11:35:39;13.40;99.90
26224;DHT22;14820;48.682;8.890;2023-05-10T11:38:07;13.40;99.90
26224;DHT22;14820;48.682;8.890;2023-05-10T11:40:34;13.50;99.90
26224;DHT22;14820;48.682;8.890;2023-05-10T11:43:00;13.60;99.90
26224;DHT22;14820;48.682;8.890;2023-05-10T11:45:26;13.60;99.90
26224;DHT22;14820;48.682;8.890;2023-05-10T11:47:53;13.70;99.90
26224;DHT22;14820;48.682;8.890;2023-05-10T11:50:19;13.80;99.90
26224;DHT22;14820;48.682;8.890;2023-05-10T11:52:44;13.90;99.90
26224;DHT22;14820;48.682;8.890;2023-05-10T11:55:10;14.00;99.90
26224;DHT22;14820;48.682;8.890;2023-05-10T11:57:36;14.10;99.90
26224;DHT22;14820;48.682;8.890;2023-05-10T12:00:04;14.10;99.90
26224;DHT22;14820;48.682;8.890;2023-05-10T12:02:30;14.20;99.90
26224;DHT22;14820;48.682;8.890;2023-05-10T12:04:56;14.20;99.90
26224;DHT22;14820;48.682;8.890;2023-05-10T12:07:22;14.10;99.90
26224;DHT22;14820;48.682;8.890;2023-05-10T12:10:07;14.00;99.90
26224;DHT22;14820;48.682;8.890;2023-05-10T12:12:38;13.90;99.90
26224;DHT22;14820;48.682;8.890;2023-05-10T12:15:05;13.80;99.90
26224;DHT22;14820;48.682;8.890;2023-05-10T12:17:32;13.80;99.90
26224;DHT22;14820;48.682;8.890;2023-05-10T12:20:17;13.80;99.90
26224;DHT22;14820;48.682;8.890;2023-05-10T12:22:51;13.80;99.90
26224;DHT22;14820;48.682;8.890;2023-05-10T12:25:18;13.80;99.90
26224;DHT22;14820;48.682;8.890;2023-05-10T12:27:57;13.80;99.90
26224;DHT22;14820;48.682;8.890;2023-05-10T12:30:28;13.80;99.90
26224;DHT22;14820;48.682;8.890;2023-05-10T12:32:58;13.90;99.90
26224;DHT22;14820;48.682;8.890;2023-05-10T12:35:24;13.80;99.90
26224;DHT22;14820;48.682;8.890;2023-05-10T12:37:53;13.90;99.90
26224;DHT22;14820;48.682;8.890;2023-05-10T12:40:18;13.90;99.90
26224;DHT22;14820;48.682;8.890;2023-05-10T12:42:44;13.90;99.90
26224;DHT22;14820;48.682;8.890;2023-05-10T12:45:12;13.90;99.90
26224;DHT22;14820;48.682;8.890;2023-05-10T12:47:38;13.90;99.90
26224;DHT22;14820;48.682;8.890;2023-05-10T12:50:04;14.00;99.90
26224;DHT22;14820;48.682;8.890;2023-05-10T12:52:31;13.90;99.90
26224;DHT22;14820;48.682;8.890;2023-05-10T12:54:58;14.00;99.90
26224;DHT22;14820;48.682;8.890;2023-05-10T12:57:24;14.00;99.90
26224;DHT22;14820;48.682;8.890;2023-05-10T12:59:50;14.10;99.90
26224;DHT22;14820;48.682;8.890;2023-05-10T13:02:16;14.10;99.90
26224;DHT22;14820;48.682;8.890;2023-05-10T13:04:44;14.00;99.90
26224;DHT22;14820;48.682;8.890;2023-05-10T13:07:09;14.10;99.90
26224;DHT22;14820;48.682;8.890;2023-05-10T13:09:35;14.00;99.90
26224;DHT22;14820;48.682;8.890;2023-05-10T13:12:02;14.10;99.90
26224;DHT22;14820;48.682;8.890;2023-05-10T13:14:27;14.00;99.90
26224;DHT22;14820;48.682;8.890;2023-05-10T13:16:53;14.00;99.90
26224;DHT22;14820;48.682;8.890;2023-05-10T13:19:19;14.10;99.90
26224;DHT22;14820;48.682;8.890;2023-05-10T13:21:45;14.00;99.90
26224;DHT22;14820;48.682;8.890;2023-05-10T13:24:11;14.10;99.90
26224;DHT22;14820;48.682;8.890;2023-05-10T13:26:39;14.10;99.90
26224;DHT22;14820;48.682;8.890;2023-05-10T13:29:06;14.10;99.90
26224;DHT22;14820;48.682;8.890;2023-05-10T13:31:32;14.10;99.90
26224;DHT22;14820;48.682;8.890;2023-05-10T13:33:57;14.10;99.90
26224;DHT22;14820;48.682;8.890;2023-05-10T13:36:23;14.10;99.90
26224;DHT22;14820;48.682;8.890;2023-05-10T13:38:48;14.20;99.90
26224;DHT22;14820;48.682;8.890;2023-05-10T13:41:14;14.20;99.90
26224;DHT22;14820;48.682;8.890;2023-05-10T13:43:40;14.20;99.90
26224;DHT22;14820;48.682;8.890;2023-05-10T13:46:05;14.20;99.90
26224;DHT22;14820;48.682;8.890;2023-05-10T13:48:31;14.20;99.90
26224;DHT22;14820;48.682;8.890;2023-05-10T13:50:57;14.30;99.90
26224;DHT22;14820;48.682;8.890;2023-05-10T13:53:22;14.30;99.90
26224;DHT22;14820;48.682;8.890;2023-05-10T13:55:48;14.40;99.90
26224;DHT22;14820;48.682;8.890;2023-05-10T13:58:14;14.50;99.90
26224;DHT22;14820;48.682;8.890;2023-05-10T14:00:40;14.50;99.90
26224;DHT22;14820;48.682;8.890;2023-05-10T14:03:05;14.60;99.90
26224;DHT22;14820;48.682;8.890;2023-05-10T14:05:32;14.60;99.90
26224;DHT22;14820;48.682;8.890;2023-05-10T14:07:58;14.60;99.90
26224;DHT22;14820;48.682;8.890;2023-05-10T14:10:23;14.60;99.90
26224;DHT22;14820;48.682;8.890;2023-05-10T14:12:50;14.70;99.90
26224;DHT22;14820;48.682;8.890;2023-05-10T14:15:15;14.70;99.90
26224;DHT22;14820;48.682;8.890;2023-05-10T14:17:41;14.70;99.90
26224;DHT22;14820;48.682;8.890;2023-05-10T14:20:07;14.70;99.90
26224;DHT22;14820;48.682;8.890;2023-05-10T14:22:34;14.70;99.90
26224;DHT22;14820;48.682;8.890;2023-05-10T14:25:00;14.70;99.90
26224;DHT22;14820;48.682;8.890;2023-05-10T14:27:26;14.70;99.90
26224;DHT22;14820;48.682;8.890;2023-05-10T14:29:51;14.80;99.90
26224;DHT22;14820;48.682;8.890;2023-05-10T14:32:18;14.70;99.90
26224;DHT22;14820;48.682;8.890;2023-05-10T14:34:44;14.70;99.90
26224;DHT22;14820;48.682;8.890;2023-05-10T14:37:11;14.70;99.90
26224;DHT22;14820;48.682;8.890;2023-05-10T14:39:37;14.70;99.90
26224;DHT22;14820;48.682;8.890;2023-05-10T14:42:03;14.70;99.90
26224;DHT22;14820;48.682;8.890;2023-05-10T14:44:29;14.70;99.90
26224;DHT22;14820;48.682;8.890;2023-05-10T14:46:54;14.70;99.90
26224;DHT22;14820;48.682;8.890;2023-05-10T14:49:21;14.70;99.90
26224;DHT22;14820;48.682;8.890;2023-05-10T14:51:48;14.70;99.90
26224;DHT22;14820;48.682;8.890;2023-05-10T14:54:13;14.70;99.90
26224;DHT22;14820;48.682;8.890;2023-05-10T14:56:39;14.70;99.90
26224;DHT22;14820;48.682;8.890;2023-05-10T14:59:07;14.70;99.90
26224;DHT22;14820;48.682;8.890;2023-05-10T15:01:33;14.70;99.90
26224;DHT22;14820;48.682;8.890;2023-05-10T15:04:00;14.70;99.90
26224;DHT22;14820;48.682;8.890;2023-05-10T15:06:33;14.70;99.90
26224;DHT22;14820;48.682;8.890;2023-05-10T15:09:00;14.70;99.90
26224;DHT22;14820;48.682;8.890;2023-05-10T15:11:26;14.70;99.90
26224;DHT22;14820;48.682;8.890;2023-05-10T15:13:52;14.70;99.90
26224;DHT22;14820;48.682;8.890;2023-05-10T15:16:18;14.80;99.90
26224;DHT22;14820;48.682;8.890;2023-05-10T15:18:43;14.80;99.90
26224;DHT22;14820;48.682;8.890;2023-05-10T15:21:09;14.80;99.90
26224;DHT22;14820;48.682;8.890;2023-05-10T15:23:35;14.80;99.90
26224;DHT22;14820;48.682;8.890;2023-05-10T15:26:01;14.80;99.90
26224;DHT22;14820;48.682;8.890;2023-05-10T15:28:28;14.80;99.90
26224;DHT22;14820;48.682;8.890;2023-05-10T15:30:54;14.80;99.90
26224;DHT22;14820;48.682;8.890;2023-05-10T15:33:20;14.80;99.90
26224;DHT22;14820;48.682;8.890;2023-05-10T15:35:45;14.70;99.90
26224;DHT22;14820;48.682;8.890;2023-05-10T15:38:11;14.80;99.90
26224;DHT22;14820;48.682;8.890;2023-05-10T15:40:37;14.80;99.90
26224;DHT22;14820;48.682;8.890;2023-05-10T15:43:02;14.80;99.90
26224;DHT22;14820;48.682;8.890;2023-05-10T15:45:28;14.80;99.90
26224;DHT22;14820;48.682;8.890;2023-05-10T15:47:54;14.80;99.90
26224;DHT22;14820;48.682;8.890;2023-05-10T15:50:19;14.80;99.90
26224;DHT22;14820;48.682;8.890;2023-05-10T15:52:45;14.80;99.90
26224;DHT22;14820;48.682;8.890;2023-05-10T15:55:11;14.80;99.90
26224;DHT22;14820;48.682;8.890;2023-05-10T15:57:41;14.80;99.90
26224;DHT22;14820;48.682;8.890;2023-05-10T16:00:08;14.80;99.90
26224;DHT22;14820;48.682;8.890;2023-05-10T16:02:34;14.80;99.90
26224;DHT22;14820;48.682;8.890;2023-05-10T16:05:00;14.70;99.90